Time;durP1;ratioP1;P1;durP2;ratioP2;P2;SDS_P1;SDS_P2;PMS_P1;PMS_P2;Temp;Humidity;BMP_temperature;BMP_pressure;BME280_temperature;BME280_humidity;BME280_pressure;Samples;Min_cycle;Max_cycle;Signal;HPM_P1;HPM_P2
2023/10/04 00:00:19;;;;;;;2.37;0.80;;;17.10;67.70;;;;;;2364146;54;21341;-68
2023/10/04 00:02:46;;;;;;;2.97;1.10;;;17.10;67.80;;;;;;2615233;52;20942;-69
2023/10/04 00:05:16;;;;;;;3.45;0.90;;;17.00;67.70;;;;;;2365364;53;20934;-68
2023/10/04 00:07:55;;;;;;;2.78;0.88;;;17.00;67.80;;;;;;2348976;53;20917;-67
2023/10/04 00:10:24;;;;;;;2.37;0.90;;;17.00;67.60;;;;;;2341033;54;21004;-67
2023/10/04 00:12:50;;;;;;;2.83;1.00;;;17.00;67.80;;;;;;2369340;53;20950;-69
2023/10/04 00:15:25;;;;;;;2.50;1.08;;;17.00;67.80;;;;;;2620621;52;20938;-68
2023/10/04 00:17:52;;;;;;;2.60;0.90;;;17.00;67.80;;;;;;2621748;52;21005;-68
2023/10/04 00:20:19;;;;;;;2.75;1.05;;;17.00;67.90;;;;;;2368514;53;21050;-68
2023/10/04 00:22:46;;;;;;;1.98;0.70;;;17.00;67.90;;;;;;2367016;53;21038;-68
2023/10/04 00:25:23;;;;;;;2.33;0.77;;;17.00;67.90;;;;;;2370314;53;21317;-67
2023/10/04 00:27:52;;;;;;;3.55;0.90;;;17.00;67.70;;;;;;2369002;53;20987;-68
2023/10/04 00:30:21;;;;;;;2.45;0.90;;;16.90;67.90;;;;;;2618673;52;20942;-71
2023/10/04 00:32:47;;;;;;;2.78;1.10;;;17.00;68.00;;;;;;2365415;53;21208;-68
2023/10/04 00:35:17;;;;;;;2.15;0.75;;;16.90;67.90;;;;;;2620117;52;20986;-67
2023/10/04 00:37:46;;;;;;;2.28;0.90;;;17.00;67.80;;;;;;2620340;52;21389;-68
2023/10/04 00:40:15;;;;;;;3.35;0.98;;;16.90;67.60;;;;;;2594499;52;21030;-69
2023/10/04 00:42:47;;;;;;;3.50;1.08;;;16.90;67.60;;;;;;2366018;53;20942;-66
2023/10/04 00:45:13;;;;;;;2.50;1.02;;;16.90;67.60;;;;;;2619558;52;20942;-67
2023/10/04 00:47:47;;;;;;;3.95;1.10;;;16.90;67.70;;;;;;2620185;52;21046;-67
2023/10/04 00:50:17;;;;;;;5.22;1.20;;;16.90;67.60;;;;;;2620399;52;21474;-68
2023/10/04 00:52:52;;;;;;;2.17;0.80;;;16.90;67.60;;;;;;2620304;52;20981;-67
2023/10/04 00:55:19;;;;;;;3.55;0.90;;;16.80;67.20;;;;;;2620610;52;20954;-69
2023/10/04 00:57:51;;;;;;;4.68;0.90;;;16.80;67.40;;;;;;2368899;53;20946;-70
2023/10/04 01:00:18;;;;;;;2.25;0.82;;;16.80;67.30;;;;;;2366859;53;20950;-68
2023/10/04 01:02:44;;;;;;;2.85;0.93;;;16.70;67.10;;;;;;2347385;53;21929;-67
2023/10/04 01:05:15;;;;;;;2.85;0.73;;;16.70;67.00;;;;;;2348507;53;20994;-68
2023/10/04 01:07:43;;;;;;;2.50;0.90;;;16.70;67.00;;;;;;2620201;52;21018;-70
2023/10/04 01:10:16;;;;;;;1.85;0.60;;;16.60;66.90;;;;;;2620961;52;20927;-67
2023/10/04 01:12:45;;;;;;;4.87;1.40;;;16.60;66.90;;;;;;2610496;52;20975;-68
2023/10/04 01:15:31;;;;;;;2.65;0.80;;;16.60;67.00;;;;;;2602561;52;20946;-67
2023/10/04 01:18:00;;;;;;;2.33;0.90;;;16.60;67.10;;;;;;2368414;53;20934;-66
2023/10/04 01:20:30;;;;;;;3.33;1.20;;;16.50;67.20;;;;;;2368296;53;20970;-67
2023/10/04 01:23:16;;;;;;;2.60;0.95;;;16.50;67.50;;;;;;2587002;52;21435;-69
2023/10/04 01:25:43;;;;;;;3.78;0.90;;;16.40;67.30;;;;;;2340311;53;20959;-67
2023/10/04 01:28:14;;;;;;;3.12;1.10;;;16.40;67.90;;;;;;2340990;53;21429;-67
2023/10/04 01:30:40;;;;;;;2.53;0.90;;;16.40;68.00;;;;;;2587060;52;21384;-66
2023/10/04 01:33:15;;;;;;;3.28;1.20;;;16.40;68.20;;;;;;2338932;53;20919;-67
2023/10/04 01:35:56;;;;;;;2.50;1.10;;;16.40;68.20;;;;;;2583302;52;21065;-69
2023/10/04 01:38:24;;;;;;;3.60;1.30;;;16.40;68.00;;;;;;2584674;52;20994;-67
2023/10/04 01:40:52;;;;;;;3.50;1.08;;;16.40;68.20;;;;;;2340770;53;20904;-68
2023/10/04 01:43:19;;;;;;;3.67;1.00;;;16.40;68.20;;;;;;2340771;53;20932;-70
2023/10/04 01:45:51;;;;;;;3.50;1.45;;;16.40;68.20;;;;;;2340279;53;21866;-71
2023/10/04 01:48:18;;;;;;;3.15;1.02;;;16.40;68.20;;;;;;2590838;52;20949;-67
2023/10/04 01:50:52;;;;;;;2.97;0.98;;;16.50;68.40;;;;;;2352616;52;20972;-68
2023/10/04 01:53:25;;;;;;;2.47;0.90;;;16.40;68.40;;;;;;2340553;53;21043;-68
2023/10/04 01:55:55;;;;;;;3.85;1.00;;;16.40;68.20;;;;;;2605977;52;20957;-67
2023/10/04 01:58:24;;;;;;;2.75;0.90;;;16.40;68.30;;;;;;2340754;53;21004;-67
2023/10/04 02:00:51;;;;;;;2.42;0.88;;;16.40;68.40;;;;;;2340333;53;20944;-68
2023/10/04 02:03:17;;;;;;;2.72;0.85;;;16.50;68.50;;;;;;2586571;52;20889;-68
2023/10/04 02:05:45;;;;;;;2.58;0.85;;;16.50;68.50;;;;;;2586708;52;20956;-68
2023/10/04 02:08:14;;;;;;;2.85;1.05;;;16.50;68.50;;;;;;2586908;52;20957;-67
2023/10/04 02:10:41;;;;;;;2.50;0.80;;;16.50;68.50;;;;;;2340260;53;21000;-67
2023/10/04 02:13:16;;;;;;;2.83;0.98;;;16.50;68.50;;;;;;2341161;53;21003;-67
2023/10/04 02:15:51;;;;;;;3.45;0.90;;;16.50;68.50;;;;;;2586762;52;20996;-68
2023/10/04 02:18:18;;;;;;;5.78;1.15;;;16.50;68.50;;;;;;2340320;53;20961;-68
2023/10/04 02:20:53;;;;;;;2.87;0.88;;;16.50;68.60;;;;;;2340759;53;20953;-67
2023/10/04 02:23:19;;;;;;;2.80;0.68;;;16.50;68.60;;;;;;2350032;53;20974;-70
2023/10/04 02:25:46;;;;;;;1.95;0.85;;;16.50;68.60;;;;;;2350786;53;21121;-67
2023/10/04 02:28:18;;;;;;;3.35;1.08;;;16.50;68.70;;;;;;2587726;52;20992;-68
2023/10/04 02:30:48;;;;;;;3.03;1.00;;;16.50;68.70;;;;;;2352320;53;20949;-67
2023/10/04 02:33:15;;;;;;;1.75;0.77;;;16.50;68.60;;;;;;2605072;52;20981;-69
2023/10/04 02:35:44;;;;;;;2.15;0.80;;;16.60;68.60;;;;;;2609470;52;20926;-69
2023/10/04 02:38:23;;;;;;;2.55;0.90;;;16.50;68.30;;;;;;2587775;52;20937;-68
2023/10/04 02:40:53;;;;;;;2.85;0.80;;;16.60;68.10;;;;;;2341167;53;20939;-67
2023/10/04 02:43:30;;;;;;;2.72;1.00;;;16.50;68.20;;;;;;2341111;53;20975;-69
2023/10/04 02:45:57;;;;;;;2.12;0.85;;;16.50;68.10;;;;;;2341276;53;20997;-68
2023/10/04 02:48:23;;;;;;;1.87;0.75;;;16.50;68.30;;;;;;2341934;53;21318;-69
2023/10/04 02:50:50;;;;;;;4.07;1.05;;;16.50;68.40;;;;;;2341526;53;20980;-67
2023/10/04 02:53:17;;;;;;;3.05;1.00;;;16.60;68.50;;;;;;2587808;52;20916;-68
2023/10/04 02:55:43;;;;;;;4.28;1.20;;;16.50;68.30;;;;;;2341167;53;20936;-68
2023/10/04 02:58:12;;;;;;;2.17;0.70;;;16.50;68.30;;;;;;2341958;53;21327;-66
2023/10/04 03:00:45;;;;;;;2.28;0.90;;;16.50;68.30;;;;;;2597539;52;20982;-68
2023/10/04 03:03:13;;;;;;;2.83;0.60;;;16.40;68.20;;;;;;2347731;53;21375;-67
2023/10/04 03:05:42;;;;;;;2.25;0.88;;;16.40;68.20;;;;;;2593760;52;21274;-67
2023/10/04 03:08:10;;;;;;;3.00;1.20;;;16.50;68.30;;;;;;2599951;52;20945;-70
2023/10/04 03:10:37;;;;;;;2.58;0.80;;;16.40;68.00;;;;;;2353316;53;21001;-68
2023/10/04 03:13:11;;;;;;;2.25;0.82;;;16.40;68.00;;;;;;2364383;54;20915;-69
2023/10/04 03:15:38;;;;;;;2.70;0.88;;;16.30;67.80;;;;;;2363771;54;20974;-67
2023/10/04 03:18:13;;;;;;;2.42;1.00;;;16.30;67.90;;;;;;2364321;54;20894;-68
2023/10/04 03:20:51;;;;;;;3.53;1.00;;;16.30;68.10;;;;;;2363498;54;21379;-68
2023/10/04 03:23:18;;;;;;;3.20;0.80;;;16.30;68.20;;;;;;2608090;52;20945;-68
2023/10/04 03:25:47;;;;;;;2.95;0.90;;;16.30;68.20;;;;;;2587025;52;21489;-68
2023/10/04 03:28:14;;;;;;;3.50;1.12;;;16.30;68.20;;;;;;2358218;53;20993;-68
2023/10/04 03:30:44;;;;;;;3.00;1.15;;;16.20;68.00;;;;;;2339216;53;21499;-68
2023/10/04 03:33:10;;;;;;;3.75;1.10;;;16.20;68.00;;;;;;2602726;52;20926;-70
2023/10/04 03:35:39;;;;;;;3.67;1.17;;;16.20;67.90;;;;;;2364031;53;20894;-67
2023/10/04 03:38:06;;;;;;;1.80;0.68;;;16.20;67.80;;;;;;2361490;53;20995;-69
2023/10/04 03:40:35;;;;;;;3.80;0.82;;;16.10;67.70;;;;;;2338257;54;21448;-70
2023/10/04 03:43:08;;;;;;;3.92;0.90;;;16.10;67.70;;;;;;2593862;52;20965;-66
2023/10/04 03:45:40;;;;;;;2.92;0.95;;;16.10;67.70;;;;;;2587242;52;20917;-70
2023/10/04 03:48:15;;;;;;;4.82;0.77;;;16.00;67.60;;;;;;2342008;53;21048;-68
2023/10/04 03:50:48;;;;;;;2.15;0.90;;;16.00;67.60;;;;;;2346107;53;23051;-68
2023/10/04 03:53:15;;;;;;;2.00;0.80;;;16.00;67.40;;;;;;2337643;53;21800;-67
2023/10/04 03:55:46;;;;;;;3.25;1.00;;;15.90;67.60;;;;;;2586772;52;21481;-68
2023/10/04 03:58:12;;;;;;;3.72;1.10;;;15.90;67.70;;;;;;2601892;52;20961;-68
2023/10/04 04:00:39;;;;;;;3.08;0.80;;;15.90;67.70;;;;;;2368544;53;21353;-68
2023/10/04 04:03:06;;;;;;;2.28;0.85;;;15.90;67.70;;;;;;2621280;52;20898;-68
2023/10/04 04:05:38;;;;;;;2.58;0.93;;;15.80;67.70;;;;;;2337401;53;20965;-68
2023/10/04 04:08:05;;;;;;;2.65;1.00;;;15.80;67.70;;;;;;2588501;52;21727;-67
2023/10/04 04:10:31;;;;;;;1.90;0.82;;;15.80;67.60;;;;;;2590998;52;21775;-70
2023/10/04 04:13:01;;;;;;;4.00;1.00;;;15.70;67.50;;;;;;2352618;53;20948;-68
2023/10/04 04:15:28;;;;;;;3.08;1.08;;;15.70;67.60;;;;;;2586989;52;20985;-67
2023/10/04 04:17:55;;;;;;;1.62;0.70;;;15.70;67.60;;;;;;2602675;52;20910;-68
2023/10/04 04:20:23;;;;;;;1.77;0.70;;;15.60;67.60;;;;;;2364786;54;20942;-67
2023/10/04 04:22:53;;;;;;;3.33;1.05;;;15.70;67.70;;;;;;2602831;52;21815;-68
2023/10/04 04:25:23;;;;;;;4.32;1.05;;;15.60;67.70;;;;;;2342241;53;21494;-70
2023/10/04 04:27:51;;;;;;;4.25;1.15;;;15.60;67.70;;;;;;2340525;54;21028;-67
2023/10/04 04:30:28;;;;;;;2.70;0.95;;;15.50;67.70;;;;;;2341375;53;21001;-67
2023/10/04 04:32:57;;;;;;;4.05;1.30;;;15.50;67.80;;;;;;2586404;52;20941;-68
2023/10/04 04:35:47;;;;;;;2.60;0.90;;;15.50;67.80;;;;;;2598618;52;21905;-69
2023/10/04 04:38:27;;;;;;;2.80;0.95;;;15.50;67.70;;;;;;2369330;53;20978;-68
2023/10/04 04:40:56;;;;;;;2.60;1.00;;;15.40;67.40;;;;;;2620178;52;20966;-67
2023/10/04 04:43:43;;;;;;;4.37;1.05;;;15.40;67.30;;;;;;2369559;53;21013;-67
2023/10/04 04:46:13;;;;;;;2.55;0.80;;;15.40;67.30;;;;;;2369722;53;21097;-71
2023/10/04 04:48:40;;;;;;;3.95;0.93;;;15.30;67.30;;;;;;2621160;52;20938;-67
2023/10/04 04:51:12;;;;;;;2.47;0.88;;;15.30;67.30;;;;;;2369421;53;21379;-71
2023/10/04 04:53:39;;;;;;;2.45;0.95;;;15.20;67.30;;;;;;2621411;52;21010;-68
2023/10/04 04:56:10;;;;;;;3.53;0.95;;;15.20;67.50;;;;;;2621662;52;20910;-68
2023/10/04 04:58:45;;;;;;;4.62;1.10;;;15.20;67.50;;;;;;2369169;53;20947;-68
2023/10/04 05:01:13;;;;;;;1.80;0.70;;;15.20;67.50;;;;;;2621953;52;20930;-70
2023/10/04 05:03:42;;;;;;;2.72;1.10;;;15.20;67.50;;;;;;2368621;53;20990;-68
2023/10/04 05:06:15;;;;;;;3.22;0.80;;;15.10;67.50;;;;;;2369931;53;20963;-67
2023/10/04 05:08:43;;;;;;;2.37;0.88;;;15.10;67.40;;;;;;2620854;52;20967;-71
2023/10/04 05:11:10;;;;;;;1.75;0.73;;;15.20;67.40;;;;;;2369358;53;20962;-68
2023/10/04 05:13:36;;;;;;;3.42;1.10;;;15.00;67.20;;;;;;2621283;52;20918;-67
2023/10/04 05:16:07;;;;;;;2.25;0.80;;;15.00;67.10;;;;;;2621538;52;21023;-68
2023/10/04 05:18:33;;;;;;;3.55;0.70;;;14.90;67.00;;;;;;2368811;53;20954;-67
2023/10/04 05:21:00;;;;;;;2.35;1.08;;;14.90;67.00;;;;;;2621699;52;21010;-68
2023/10/04 05:23:29;;;;;;;3.10;0.85;;;14.90;67.00;;;;;;2369886;53;20996;-69
2023/10/04 05:25:59;;;;;;;2.67;1.05;;;14.80;67.00;;;;;;2621674;52;20949;-66
2023/10/04 05:28:27;;;;;;;3.65;1.10;;;14.80;67.00;;;;;;2622342;52;20935;-69
2023/10/04 05:30:53;;;;;;;3.33;1.00;;;14.70;67.00;;;;;;2621177;52;20997;-66
2023/10/04 05:33:20;;;;;;;2.50;0.88;;;14.70;67.10;;;;;;2369493;53;21073;-66
2023/10/04 05:35:48;;;;;;;2.80;1.00;;;14.70;67.20;;;;;;2619974;52;21897;-66
2023/10/04 05:38:14;;;;;;;3.37;1.10;;;14.60;67.10;;;;;;2368495;53;20998;-70
2023/10/04 05:40:44;;;;;;;3.12;1.10;;;14.70;67.30;;;;;;2367783;53;20899;-68
2023/10/04 05:43:11;;;;;;;2.37;0.98;;;14.60;67.30;;;;;;2342680;53;21740;-68
2023/10/04 05:45:45;;;;;;;3.33;0.90;;;14.60;67.40;;;;;;2607260;52;20922;-67
2023/10/04 05:48:12;;;;;;;2.10;1.00;;;14.60;67.40;;;;;;2599430;52;20927;-70
2023/10/04 05:50:41;;;;;;;2.33;0.90;;;14.50;67.20;;;;;;2612782;52;21333;-68
2023/10/04 05:53:08;;;;;;;2.67;1.08;;;14.50;67.00;;;;;;2621335;52;20926;-70
2023/10/04 05:55:35;;;;;;;3.00;0.90;;;14.50;67.10;;;;;;2587044;52;21407;-67
2023/10/04 05:58:06;;;;;;;2.58;1.10;;;14.50;67.10;;;;;;2367349;53;20942;-67
2023/10/04 06:00:37;;;;;;;2.83;0.90;;;14.40;67.10;;;;;;2621499;52;21945;-67
2023/10/04 06:03:08;;;;;;;2.22;0.80;;;14.40;67.20;;;;;;2621441;52;21438;-67
2023/10/04 06:05:40;;;;;;;2.58;1.00;;;14.30;67.30;;;;;;2620732;52;20958;-66
2023/10/04 06:08:15;;;;;;;4.12;1.12;;;14.30;67.40;;;;;;2620459;52;20918;-67
2023/10/04 06:10:45;;;;;;;4.50;1.02;;;14.30;67.50;;;;;;2591444;52;21769;-70
2023/10/04 06:13:11;;;;;;;3.20;1.40;;;14.30;67.60;;;;;;2368995;53;21002;-71
2023/10/04 06:15:47;;;;;;;3.20;1.08;;;14.30;67.80;;;;;;2620514;52;21787;-68
2023/10/04 06:18:19;;;;;;;2.50;0.98;;;14.30;67.70;;;;;;2369145;53;20930;-67
2023/10/04 06:20:46;;;;;;;1.67;0.75;;;14.30;67.90;;;;;;2619509;52;21278;-68
2023/10/04 06:23:14;;;;;;;2.12;0.90;;;14.20;67.90;;;;;;2369687;53;20934;-71
2023/10/04 06:25:47;;;;;;;2.28;0.93;;;14.20;68.00;;;;;;2348434;54;21070;-68
2023/10/04 06:28:14;;;;;;;3.25;0.98;;;14.20;68.00;;;;;;2621527;52;20915;-67
2023/10/04 06:30:42;;;;;;;2.53;0.93;;;14.20;68.10;;;;;;2620972;52;20991;-68
2023/10/04 06:33:11;;;;;;;2.67;1.00;;;14.30;68.50;;;;;;2621762;52;20946;-67
2023/10/04 06:35:43;;;;;;;3.25;1.12;;;14.30;68.60;;;;;;2368730;53;20962;-67
2023/10/04 06:38:12;;;;;;;3.40;1.23;;;14.30;68.70;;;;;;2587016;52;21040;-67
2023/10/04 06:40:39;;;;;;;2.90;1.15;;;14.30;68.80;;;;;;2340406;54;20949;-67
2023/10/04 06:43:08;;;;;;;2.47;1.10;;;14.30;68.90;;;;;;2362741;53;20933;-70
2023/10/04 06:45:35;;;;;;;3.20;1.00;;;14.30;69.00;;;;;;2368665;53;21109;-71
2023/10/04 06:48:03;;;;;;;2.70;1.00;;;14.40;69.20;;;;;;2368341;53;21498;-68
2023/10/04 06:50:35;;;;;;;1.95;0.82;;;14.40;69.40;;;;;;2621441;52;20920;-68
2023/10/04 06:53:02;;;;;;;3.03;1.15;;;14.50;69.40;;;;;;2620868;52;20926;-67
2023/10/04 06:55:32;;;;;;;2.60;0.98;;;14.50;69.50;;;;;;2369149;53;21367;-68
2023/10/04 06:57:58;;;;;;;3.67;1.15;;;14.50;69.60;;;;;;2368702;53;22169;-70
2023/10/04 07:00:30;;;;;;;5.87;1.45;;;14.60;69.80;;;;;;2368472;53;21526;-67
2023/10/04 07:02:59;;;;;;;3.83;1.05;;;14.60;69.90;;;;;;2364097;53;21010;-68
2023/10/04 07:05:32;;;;;;;2.55;1.12;;;14.70;70.10;;;;;;2353964;53;20922;-68
2023/10/04 07:07:59;;;;;;;3.40;1.30;;;14.70;70.10;;;;;;2619988;52;20973;-68
2023/10/04 07:10:27;;;;;;;3.10;1.23;;;14.80;70.40;;;;;;2620779;52;20903;-68
2023/10/04 07:12:56;;;;;;;3.20;1.23;;;14.80;70.50;;;;;;2620007;52;21301;-68
2023/10/04 07:15:25;;;;;;;3.40;1.27;;;14.90;70.60;;;;;;2619116;52;20943;-70
2023/10/04 07:17:51;;;;;;;2.72;1.05;;;14.90;70.60;;;;;;2367675;53;20978;-68
2023/10/04 07:20:24;;;;;;;3.60;1.50;;;15.00;70.80;;;;;;2621423;52;21217;-68
2023/10/04 07:22:59;;;;;;;3.30;1.05;;;15.10;71.00;;;;;;2621236;52;21141;-70
2023/10/04 07:25:27;;;;;;;3.15;0.93;;;15.10;71.00;;;;;;2369679;53;20930;-68
2023/10/04 07:27:55;;;;;;;2.45;1.00;;;15.20;71.20;;;;;;2621417;52;20995;-67
2023/10/04 07:30:22;;;;;;;2.40;0.90;;;15.30;71.30;;;;;;2369420;53;21538;-68
2023/10/04 07:32:48;;;;;;;3.80;1.20;;;15.30;71.40;;;;;;2621286;52;20919;-69
2023/10/04 07:35:18;;;;;;;2.97;1.20;;;15.40;71.50;;;;;;2622361;52;21056;-70
2023/10/04 07:37:45;;;;;;;4.18;1.80;;;15.50;71.70;;;;;;2340372;53;21390;-66
2023/10/04 07:40:15;;;;;;;3.25;1.33;;;15.60;71.80;;;;;;2605502;53;20912;-67
2023/10/04 07:42:42;;;;;;;2.42;1.05;;;15.70;71.90;;;;;;2341248;53;20939;-68
2023/10/04 07:45:12;;;;;;;2.87;1.15;;;15.70;71.80;;;;;;2341471;54;21027;-69
2023/10/04 07:47:42;;;;;;;3.10;1.05;;;15.80;72.00;;;;;;2587844;52;21075;-68
2023/10/04 07:50:22;;;;;;;2.75;1.30;;;15.90;72.10;;;;;;2341671;53;20948;-68
2023/10/04 07:52:54;;;;;;;4.78;1.27;;;16.00;72.10;;;;;;2587611;52;21957;-68
2023/10/04 07:55:22;;;;;;;3.60;1.40;;;16.10;72.30;;;;;;2588041;52;20981;-69
2023/10/04 07:57:50;;;;;;;3.25;1.50;;;16.20;72.40;;;;;;2340734;53;21778;-69
2023/10/04 08:00:16;;;;;;;3.65;1.20;;;16.20;72.40;;;;;;2341808;53;20974;-69
2023/10/04 08:02:50;;;;;;;3.87;1.75;;;16.30;72.40;;;;;;2583252;52;20960;-67
2023/10/04 08:05:25;;;;;;;3.83;1.62;;;16.40;72.50;;;;;;2609734;52;20910;-67
2023/10/04 08:07:52;;;;;;;3.72;1.33;;;16.50;72.60;;;;;;2620672;52;20919;-69
2023/10/04 08:10:23;;;;;;;5.32;1.52;;;16.60;72.60;;;;;;2369016;53;21767;-68
2023/10/04 08:12:54;;;;;;;3.25;1.37;;;16.70;72.60;;;;;;2369193;53;20970;-71
2023/10/04 08:15:21;;;;;;;4.53;1.40;;;16.80;72.70;;;;;;2620924;52;20903;-69
2023/10/04 08:17:52;;;;;;;4.43;1.25;;;16.80;72.60;;;;;;2368844;53;20949;-69
2023/10/04 08:20:25;;;;;;;3.40;1.15;;;17.00;72.60;;;;;;2369033;53;21018;-67
2023/10/04 08:22:52;;;;;;;2.92;1.40;;;17.00;72.50;;;;;;2620374;52;20895;-69
2023/10/04 08:25:19;;;;;;;3.40;1.50;;;17.00;72.40;;;;;;2621456;52;21555;-68
2023/10/04 08:27:46;;;;;;;3.60;1.12;;;17.20;72.50;;;;;;2367778;53;21917;-69
2023/10/04 08:30:17;;;;;;;3.35;1.50;;;17.20;72.40;;;;;;2369506;53;21017;-68
2023/10/04 08:32:46;;;;;;;3.83;1.40;;;17.30;72.30;;;;;;2369133;53;20935;-69
2023/10/04 08:35:24;;;;;;;3.72;1.10;;;17.40;72.20;;;;;;2369147;53;21014;-71
2023/10/04 08:37:55;;;;;;;2.92;0.90;;;17.40;72.00;;;;;;2368413;53;20945;-69
2023/10/04 08:40:28;;;;;;;2.05;0.75;;;17.50;71.80;;;;;;2368894;53;20993;-67
2023/10/04 08:42:55;;;;;;;2.37;0.82;;;17.60;71.70;;;;;;2367947;53;20902;-67
2023/10/04 08:45:22;;;;;;;5.32;1.10;;;17.60;71.60;;;;;;2620981;52;20930;-67
2023/10/04 08:47:51;;;;;;;2.62;0.80;;;17.70;71.60;;;;;;2368875;53;20966;-68
2023/10/04 08:51:02;;;;;;;3.62;0.98;;;17.80;71.60;;;;;;2621323;52;20907;-67
2023/10/04 08:54:13;;;;;;;2.95;0.82;;;17.80;70.50;;;;;;2367326;53;21273;-67
2023/10/04 08:56:49;;;;;;;2.20;0.98;;;17.90;70.90;;;;;;2367590;53;20997;-67
2023/10/04 08:59:17;;;;;;;3.47;0.98;;;18.00;71.20;;;;;;2369299;53;20923;-66
2023/10/04 09:01:46;;;;;;;2.40;0.85;;;18.00;71.20;;;;;;2613559;52;21036;-68
2023/10/04 09:04:14;;;;;;;2.85;1.08;;;18.10;71.00;;;;;;2618212;52;20978;-67
2023/10/04 09:06:42;;;;;;;3.87;1.00;;;18.20;71.10;;;;;;2368766;53;20917;-70
2023/10/04 09:09:11;;;;;;;2.55;1.17;;;18.20;71.00;;;;;;2370194;53;21515;-68
2023/10/04 09:11:38;;;;;;;3.20;1.00;;;18.30;71.10;;;;;;2611545;52;20954;-69
2023/10/04 09:14:07;;;;;;;3.42;0.98;;;18.30;71.00;;;;;;2368804;53;21048;-68
2023/10/04 09:16:33;;;;;;;3.80;1.02;;;18.40;70.80;;;;;;2621034;52;20918;-69
2023/10/04 09:19:06;;;;;;;2.97;1.00;;;18.50;70.70;;;;;;2620903;52;20954;-68
2023/10/04 09:21:36;;;;;;;2.05;0.75;;;18.50;70.30;;;;;;2368213;53;20914;-68
2023/10/04 09:24:10;;;;;;;2.60;0.95;;;18.60;70.40;;;;;;2367718;53;21503;-68
2023/10/04 09:26:37;;;;;;;2.00;0.70;;;18.60;69.70;;;;;;2367584;53;20965;-69
2023/10/04 09:29:05;;;;;;;2.55;0.80;;;18.70;70.10;;;;;;2616582;52;21432;-70
2023/10/04 09:31:47;;;;;;;3.87;0.93;;;18.80;70.10;;;;;;2362421;53;21688;-69
2023/10/04 09:34:13;;;;;;;2.15;0.90;;;18.80;69.60;;;;;;2620624;52;20938;-68
2023/10/04 09:36:43;;;;;;;3.00;1.00;;;18.90;69.80;;;;;;2368571;53;21534;-71
2023/10/04 09:39:13;;;;;;;2.53;0.75;;;18.90;69.60;;;;;;2368041;53;20934;-72
2023/10/04 09:41:41;;;;;;;2.62;0.98;;;19.00;69.50;;;;;;2620848;52;21061;-67
2023/10/04 09:44:36;;;;;;;1.50;0.62;;;19.00;69.30;;;;;;2368293;53;21832;-70
2023/10/04 09:47:02;;;;;;;3.65;0.93;;;19.10;68.50;;;;;;2368580;53;21045;-71
2023/10/04 09:49:32;;;;;;;3.92;1.02;;;19.10;69.20;;;;;;2369162;53;21295;-69
2023/10/04 09:52:02;;;;;;;2.20;0.85;;;19.20;69.10;;;;;;2368416;53;21449;-68
2023/10/04 09:54:29;;;;;;;2.78;1.00;;;19.20;69.50;;;;;;2621120;52;20926;-70
2023/10/04 09:56:55;;;;;;;3.42;0.85;;;19.30;69.60;;;;;;2368238;53;20901;-69
2023/10/04 09:59:21;;;;;;;3.97;0.88;;;19.30;69.50;;;;;;2369393;53;20946;-68
2023/10/04 10:01:52;;;;;;;3.45;0.82;;;19.40;69.40;;;;;;2620356;52;20926;-69
2023/10/04 10:04:28;;;;;;;4.20;1.02;;;19.50;69.20;;;;;;2621649;52;22187;-69
2023/10/04 10:07:23;;;;;;;2.67;0.90;;;19.50;68.80;;;;;;2369656;53;20927;-69
2023/10/04 10:10:02;;;;;;;2.67;0.93;;;19.60;67.90;;;;;;2369458;53;20966;-69
2023/10/04 10:12:31;;;;;;;3.40;0.90;;;19.60;67.80;;;;;;2368637;53;21391;-69
2023/10/04 10:15:00;;;;;;;2.85;1.00;;;19.70;68.70;;;;;;2620667;52;20906;-71
2023/10/04 10:17:27;;;;;;;3.08;1.08;;;19.70;68.40;;;;;;2369722;53;21392;-69
2023/10/04 10:19:55;;;;;;;3.25;0.95;;;19.80;68.30;;;;;;2610150;52;21013;-69
2023/10/04 10:22:21;;;;;;;2.53;0.90;;;19.80;68.10;;;;;;2367938;53;20922;-66
2023/10/04 10:27:31;;;;;;;3.42;0.85;;;19.80;68.00;;;;;;2368239;53;21114;-69
2023/10/04 10:29:59;;;;;;;2.85;0.70;;;20.00;66.50;;;;;;2371601;53;20950;-70
2023/10/04 10:32:26;;;;;;;2.55;0.88;;;20.00;68.10;;;;;;2369173;53;20974;-70
2023/10/04 10:34:57;;;;;;;2.50;1.00;;;20.00;67.90;;;;;;2610783;52;21760;-69
2023/10/04 10:37:27;;;;;;;1.90;0.88;;;20.10;67.60;;;;;;2361810;53;21774;-69
2023/10/04 10:39:55;;;;;;;3.30;0.88;;;20.10;68.50;;;;;;2619590;52;20930;-67
2023/10/04 10:42:22;;;;;;;2.70;0.98;;;20.10;67.70;;;;;;2369011;53;20904;-68
2023/10/04 10:44:50;;;;;;;2.03;0.90;;;20.20;67.60;;;;;;2367091;53;22052;-69
2023/10/04 10:47:25;;;;;;;3.50;1.02;;;20.20;67.50;;;;;;2615021;52;21009;-69
2023/10/04 10:50:12;;;;;;;1.83;0.68;;;20.30;67.10;;;;;;2619354;52;20949;-70
2023/10/04 10:52:39;;;;;;;1.73;0.75;;;20.30;67.70;;;;;;2367537;53;20925;-68
2023/10/04 10:55:16;;;;;;;4.00;1.17;;;20.40;67.90;;;;;;2615440;52;20978;-69
2023/10/04 10:57:48;;;;;;;3.65;1.08;;;20.40;66.80;;;;;;2620475;52;20933;-70
2023/10/04 11:00:22;;;;;;;2.77;1.10;;;20.50;67.50;;;;;;2368895;53;20994;-70
2023/10/04 11:02:52;;;;;;;3.03;1.00;;;20.50;67.40;;;;;;2619551;52;20918;-69
2023/10/04 11:05:21;;;;;;;2.35;0.75;;;20.60;67.60;;;;;;2620119;52;20985;-69
2023/10/04 11:07:50;;;;;;;2.40;0.90;;;20.60;67.50;;;;;;2620893;52;21558;-68
2023/10/04 11:10:17;;;;;;;2.35;0.95;;;20.70;67.20;;;;;;2368119;53;21403;-69
2023/10/04 11:12:46;;;;;;;2.58;0.88;;;20.70;67.00;;;;;;2365393;53;21416;-69
2023/10/04 11:15:13;;;;;;;2.55;0.90;;;20.80;67.00;;;;;;2369438;53;21029;-67
2023/10/04 11:17:40;;;;;;;3.33;1.05;;;20.80;66.90;;;;;;2341333;54;21194;-68
2023/10/04 11:20:11;;;;;;;4.28;1.20;;;20.80;66.80;;;;;;2363308;53;21778;-66
2023/10/04 11:22:38;;;;;;;2.37;0.80;;;20.90;66.40;;;;;;2368577;53;21009;-69
2023/10/04 11:25:06;;;;;;;2.62;0.93;;;20.90;66.50;;;;;;2368342;53;20966;-69
2023/10/04 11:27:33;;;;;;;3.12;0.80;;;21.00;66.40;;;;;;2621494;52;21054;-66
2023/10/04 11:29:59;;;;;;;3.28;1.05;;;21.00;66.40;;;;;;2368784;53;20930;-70
2023/10/04 11:32:28;;;;;;;4.55;1.10;;;21.00;66.20;;;;;;2363814;54;21438;-67
2023/10/04 11:34:56;;;;;;;2.70;0.93;;;21.10;65.60;;;;;;2368557;53;20935;-67
2023/10/04 11:37:28;;;;;;;2.85;0.93;;;21.10;65.80;;;;;;2369275;53;21899;-70
2023/10/04 11:39:55;;;;;;;;;;;21.10;65.20;;;;;;2372492;53;21316;-66
2023/10/04 11:42:23;;;;;;;3.47;0.85;;;21.10;64.30;;;;;;2369379;53;20136;-65
2023/10/04 11:44:49;;;;;;;2.80;1.00;;;21.20;65.80;;;;;;2368240;53;21411;-65
2023/10/04 11:47:31;;;;;;;2.67;0.90;;;21.20;65.70;;;;;;2621834;52;20969;-69
2023/10/04 11:50:07;;;;;;;3.25;1.10;;;21.20;64.40;;;;;;2368928;53;21068;-68
2023/10/04 11:52:34;;;;;;;2.72;0.73;;;21.20;65.50;;;;;;2368431;53;20962;-67
2023/10/04 11:55:02;;;;;;;3.45;1.20;;;21.30;65.60;;;;;;2368022;53;20954;-66
2023/10/04 11:57:37;;;;;;;3.67;1.10;;;21.30;65.40;;;;;;2368956;53;21010;-66
2023/10/04 12:00:21;;;;;;;2.15;0.80;;;21.30;65.20;;;;;;2621097;52;20946;-68
2023/10/04 12:02:49;;;;;;;3.53;0.90;;;21.40;64.20;;;;;;2618546;52;20915;-68
2023/10/04 12:05:15;;;;;;;4.15;1.10;;;21.40;65.30;;;;;;2367412;53;21889;-67
2023/10/04 12:07:41;;;;;;;4.43;1.30;;;21.40;65.10;;;;;;2615335;52;21013;-71
2023/10/04 12:10:09;;;;;;;3.45;1.10;;;21.50;64.90;;;;;;2327091;54;21851;-69
2023/10/04 12:12:37;;;;;;;4.50;0.95;;;21.50;64.60;;;;;;2361600;54;21002;-68
2023/10/04 12:15:07;;;;;;;2.87;0.95;;;21.50;64.30;;;;;;2368301;53;20977;-71
2023/10/04 12:17:35;;;;;;;2.63;0.90;;;21.50;64.30;;;;;;2368972;53;20997;-67
2023/10/04 12:20:06;;;;;;;2.33;1.00;;;21.50;64.40;;;;;;2368336;53;22388;-67
2023/10/04 12:22:32;;;;;;;3.40;1.10;;;21.50;64.30;;;;;;2368939;53;20899;-68
2023/10/04 12:24:59;;;;;;;2.75;1.10;;;21.60;64.30;;;;;;2621272;52;20955;-70
2023/10/04 12:27:27;;;;;;;3.17;1.00;;;21.60;64.20;;;;;;2364315;54;20952;-68
2023/10/04 12:29:53;;;;;;;2.70;0.90;;;21.60;64.10;;;;;;2368808;53;20962;-67
2023/10/04 12:32:20;;;;;;;2.70;0.90;;;21.70;64.00;;;;;;2619898;52;20922;-66
2023/10/04 12:34:46;;;;;;;2.83;1.08;;;21.70;63.90;;;;;;2619920;52;21014;-69
2023/10/04 12:37:12;;;;;;;3.53;0.90;;;21.70;63.80;;;;;;2361411;53;20949;-67
2023/10/04 12:39:43;;;;;;;3.22;0.85;;;21.70;63.80;;;;;;2368698;53;20925;-71
2023/10/04 12:42:09;;;;;;;2.05;0.73;;;21.80;63.80;;;;;;2369497;53;21077;-71
2023/10/04 12:44:41;;;;;;;3.08;1.08;;;21.80;63.80;;;;;;2369150;53;20926;-67
2023/10/04 12:47:08;;;;;;;3.55;1.20;;;21.80;63.70;;;;;;2621879;52;21764;-67
2023/10/04 12:49:37;;;;;;;3.75;1.23;;;21.90;63.80;;;;;;2620475;52;20981;-68
2023/10/04 12:52:04;;;;;;;3.33;1.08;;;21.90;63.70;;;;;;2621452;52;21375;-67
2023/10/04 12:54:32;;;;;;;3.35;1.00;;;22.00;63.50;;;;;;2368731;53;20993;-68
2023/10/04 12:56:58;;;;;;;2.62;1.00;;;22.00;63.70;;;;;;2368891;53;21029;-67
2023/10/04 12:59:26;;;;;;;2.65;0.82;;;22.00;63.70;;;;;;2621065;52;21625;-67
2023/10/04 13:01:56;;;;;;;2.03;0.77;;;22.10;63.80;;;;;;2368626;53;20990;-64
2023/10/04 13:04:23;;;;;;;3.58;1.27;;;22.10;63.80;;;;;;2621534;52;20926;-69